createdAt,value
2018-08-13T00:00:36.763Z,18.43
2018-08-13T00:01:36.768Z,18.46
2018-08-13T00:02:36.761Z,18.43
2018-08-13T00:03:36.801Z,18.49
2018-08-13T00:04:36.760Z,18.54
2018-08-13T00:05:36.758Z,18.54
2018-08-13T00:06:36.753Z,18.52
2018-08-13T00:07:36.753Z,18.43
2018-08-13T00:08:36.748Z,18.43
2018-08-13T00:09:36.745Z,18.39
2018-08-13T00:10:36.745Z,18.28
2018-08-13T00:11:36.751Z,18.09
2018-08-13T00:12:36.736Z,18.13
2018-08-13T00:13:36.738Z,18.06
2018-08-13T00:14:36.735Z,18.03
2018-08-13T00:15:36.735Z,17.91
2018-08-13T00:16:36.736Z,17.91
2018-08-13T00:17:36.738Z,17.82
2018-08-13T00:18:36.725Z,17.78
2018-08-13T00:19:36.725Z,17.74
2018-08-13T00:20:36.722Z,17.66
2018-08-13T00:21:36.719Z,17.67
2018-08-13T00:22:36.718Z,17.66
2018-08-13T00:23:36.714Z,17.67
2018-08-13T00:24:36.712Z,17.66
2018-08-13T00:25:36.709Z,17.67
2018-08-13T00:26:36.707Z,17.70
2018-08-13T00:27:36.728Z,17.70
2018-08-13T00:28:36.747Z,17.62
2018-08-13T00:29:36.700Z,17.69
2018-08-13T00:30:36.705Z,17.62
2018-08-13T00:31:36.696Z,17.66
2018-08-13T00:32:36.694Z,17.69
2018-08-13T00:33:36.692Z,17.70
2018-08-13T00:34:36.690Z,17.66
2018-08-13T00:35:36.689Z,17.67
2018-08-13T00:36:36.687Z,17.71
2018-08-13T00:37:36.686Z,17.67
2018-08-13T00:38:36.681Z,17.67
2018-08-13T00:39:36.678Z,17.57
2018-08-13T00:40:36.679Z,17.63
2018-08-13T00:41:36.677Z,17.66
2018-08-13T00:42:36.672Z,17.71
2018-08-13T00:43:36.670Z,17.73
2018-08-13T00:44:36.698Z,17.84
2018-08-13T00:45:36.665Z,17.87
2018-08-13T00:46:36.662Z,18.03
2018-08-13T00:47:36.662Z,18.07
2018-08-13T00:48:36.664Z,18.19
2018-08-13T00:49:36.656Z,18.19
2018-08-13T00:50:36.653Z,18.24
2018-08-13T00:51:36.649Z,18.25
2018-08-13T00:52:36.653Z,18.27
2018-08-13T00:53:36.653Z,18.27
2018-08-13T00:54:36.643Z,18.22
2018-08-13T00:55:36.645Z,18.15
2018-08-13T00:56:36.644Z,18.09
2018-08-13T00:57:37.363Z,17.94
2018-08-13T00:58:36.652Z,17.99
2018-08-13T00:59:36.637Z,17.88
2018-08-13T01:00:36.636Z,17.84
2018-08-13T01:01:36.629Z,17.79
2018-08-13T01:02:36.628Z,17.76
2018-08-13T01:03:36.623Z,17.74
2018-08-13T01:04:36.624Z,17.76
2018-08-13T01:05:36.624Z,17.74
2018-08-13T01:06:36.619Z,17.78
2018-08-13T01:07:36.632Z,17.71
2018-08-13T01:08:36.611Z,17.79
2018-08-13T01:09:36.613Z,17.78
2018-08-13T01:10:36.643Z,17.74
2018-08-13T01:11:36.609Z,17.76
2018-08-13T01:12:36.625Z,17.76
2018-08-13T01:13:36.602Z,17.74
2018-08-13T01:14:36.607Z,17.78
2018-08-13T01:15:36.623Z,17.89
2018-08-13T01:16:36.597Z,17.89
2018-08-13T01:17:36.593Z,17.99
2018-08-13T01:18:36.587Z,18.03
2018-08-13T01:19:36.610Z,18.03
2018-08-13T01:20:36.583Z,18.18
2018-08-13T01:21:36.583Z,17.95
2018-08-13T01:22:36.582Z,18.02
2018-08-13T01:23:36.577Z,17.92
2018-08-13T01:24:36.575Z,17.82
2018-08-13T01:25:36.575Z,17.78
2018-08-13T01:26:36.575Z,17.70
2018-08-13T01:27:36.621Z,17.69
2018-08-13T01:28:36.635Z,17.53
2018-08-13T01:29:36.563Z,17.53
2018-08-13T01:30:36.561Z,17.51
2018-08-13T02:04:47.495Z,17.20
2018-08-13T02:05:47.461Z,17.10
2018-08-13T02:07:40.373Z,17.13
2018-08-13T02:08:40.350Z,17.08
2018-08-13T02:10:33.259Z,17.10
2018-08-13T02:11:33.238Z,17.04
2018-08-13T02:13:26.148Z,17.23
2018-08-13T02:14:26.146Z,17.15
2018-08-13T02:16:19.067Z,17.41
2018-08-13T02:17:19.035Z,17.43
2018-08-13T02:19:11.939Z,17.46
2018-08-13T02:20:11.932Z,17.46
2018-08-13T02:22:04.903Z,17.51
2018-08-13T02:23:04.881Z,17.43
2018-08-13T02:24:57.780Z,17.48
2018-08-13T02:25:57.775Z,17.50
2018-08-13T02:27:50.703Z,17.59
2018-08-13T02:28:50.683Z,17.64
2018-08-13T02:30:43.604Z,17.66
2018-08-13T02:31:43.580Z,17.63
2018-08-13T02:33:36.512Z,17.54
2018-08-13T02:34:36.520Z,17.50
2018-08-13T02:36:29.412Z,17.48
2018-08-13T02:37:29.398Z,17.47
2018-08-13T02:39:22.389Z,17.51
2018-08-13T02:40:22.379Z,17.54
2018-08-13T02:42:15.321Z,17.66
2018-08-13T02:43:15.292Z,17.63
2018-08-13T02:45:08.325Z,17.70
2018-08-13T02:46:08.306Z,17.67
2018-08-13T02:48:01.357Z,17.62
2018-08-13T02:49:01.315Z,17.55
2018-08-13T02:50:54.256Z,17.51
2018-08-13T02:51:54.239Z,17.44
2018-08-13T02:53:47.254Z,17.36
2018-08-13T02:54:47.229Z,17.35
2018-08-13T02:56:40.202Z,17.26
2018-08-13T02:57:40.180Z,17.13
2018-08-13T02:59:33.074Z,17.22
2018-08-13T03:00:33.071Z,17.18
2018-08-13T03:02:26.003Z,17.22
2018-08-13T03:03:25.979Z,17.33
2018-08-13T03:05:18.972Z,17.43
2018-08-13T03:06:18.935Z,17.44
2018-08-13T03:08:11.931Z,17.20
2018-08-13T03:09:11.902Z,17.25
2018-08-13T03:11:04.925Z,17.38
2018-08-13T03:12:04.897Z,17.28
2018-08-13T03:13:57.838Z,17.23
2018-08-13T03:14:57.808Z,17.26
2018-08-13T03:16:50.845Z,17.29
2018-08-13T03:17:50.809Z,17.35
2018-08-13T03:19:43.765Z,17.50
2018-08-13T03:20:43.755Z,17.51
2018-08-13T03:22:36.771Z,17.54
2018-08-13T03:23:36.752Z,17.62
2018-08-13T03:25:29.739Z,17.66
2018-08-13T03:26:29.712Z,17.63
2018-08-13T03:28:22.685Z,17.67
2018-08-13T03:29:22.662Z,17.48
2018-08-13T03:31:15.589Z,17.40
2018-08-13T03:32:15.568Z,17.47
2018-08-13T03:34:08.509Z,17.47
2018-08-13T03:35:08.483Z,17.50
2018-08-13T03:37:01.453Z,17.44
2018-08-13T03:38:01.434Z,17.43
2018-08-13T03:39:01.426Z,17.51
2018-08-13T03:40:01.426Z,17.53
2018-08-13T03:41:01.420Z,17.55
2018-08-13T03:42:01.418Z,17.54
2018-08-13T03:43:01.417Z,17.55
2018-08-13T03:44:01.414Z,17.62
2018-08-13T03:45:01.407Z,17.64
2018-08-13T03:46:01.408Z,17.55
2018-08-13T03:47:01.413Z,17.62
2018-08-13T03:48:01.400Z,17.67
2018-08-13T03:49:01.399Z,17.67
2018-08-13T03:50:01.405Z,17.67
2018-08-13T03:51:01.395Z,17.69
2018-08-13T03:52:01.408Z,17.70
2018-08-13T03:53:01.396Z,17.73
2018-08-13T03:54:01.397Z,17.73
2018-08-13T03:55:01.398Z,17.69
2018-08-13T03:56:01.408Z,17.71
2018-08-13T03:57:01.392Z,17.66
2018-08-13T03:58:01.383Z,17.66
2018-08-13T03:59:01.387Z,17.54
2018-08-13T04:00:01.378Z,17.63
2018-08-13T04:01:01.383Z,17.70
2018-08-13T04:02:01.368Z,17.69
2018-08-13T04:03:01.375Z,17.74
2018-08-13T04:04:01.371Z,17.59
2018-08-13T04:05:01.372Z,17.66
2018-08-13T04:06:01.381Z,17.64
2018-08-13T04:07:01.364Z,17.73
2018-08-13T04:08:01.366Z,17.70
2018-08-13T04:09:01.365Z,17.79
2018-08-13T04:10:01.359Z,17.84
2018-08-13T04:11:01.351Z,17.89
2018-08-13T04:12:01.359Z,17.95
2018-08-13T04:13:01.407Z,17.94
2018-08-13T04:14:01.349Z,17.89
2018-08-13T04:15:01.354Z,17.89
2018-08-13T04:16:01.356Z,17.94
2018-08-13T04:17:01.351Z,17.89
2018-08-13T04:18:01.343Z,17.92
2018-08-13T04:19:01.341Z,18.17
2018-08-13T04:20:01.341Z,18.12
2018-08-13T04:21:01.340Z,18.19
2018-08-13T04:22:01.336Z,18.31
2018-08-13T04:23:01.336Z,18.33
2018-08-13T04:24:01.338Z,18.34
2018-08-13T04:25:01.331Z,18.44
2018-08-13T04:26:01.322Z,18.47
2018-08-13T04:27:01.327Z,18.50
2018-08-13T04:28:01.325Z,18.62
2018-08-13T04:29:01.329Z,18.67
2018-08-13T04:30:01.326Z,18.64
2018-08-13T04:31:01.320Z,18.65
2018-08-13T04:32:01.326Z,18.64
2018-08-13T04:33:01.316Z,18.72
2018-08-13T04:34:01.317Z,18.77
2018-08-13T04:35:01.312Z,18.77
2018-08-13T04:36:01.350Z,18.79
2018-08-13T04:37:01.307Z,18.83
2018-08-13T04:38:01.333Z,18.84
2018-08-13T04:39:01.306Z,18.82
2018-08-13T04:40:01.352Z,18.80
2018-08-13T04:41:01.300Z,18.95
2018-08-13T04:42:01.302Z,18.86
2018-08-13T04:43:01.289Z,18.90
2018-08-13T04:44:01.290Z,18.91
2018-08-13T04:45:01.295Z,18.92
2018-08-13T04:46:01.295Z,18.92
2018-08-13T04:47:01.293Z,18.97
2018-08-13T04:48:01.292Z,18.80
2018-08-13T04:49:01.293Z,18.83
2018-08-13T04:50:01.284Z,18.84
2018-08-13T04:51:01.287Z,18.68
2018-08-13T04:52:01.299Z,18.79
2018-08-13T04:53:01.286Z,18.76
2018-08-13T04:54:01.286Z,18.70
2018-08-13T04:55:01.273Z,18.58
2018-08-13T04:56:01.282Z,18.64
2018-08-13T04:57:01.281Z,18.49
2018-08-13T04:58:01.291Z,18.49
2018-08-13T04:59:01.328Z,18.46
2018-08-13T05:00:01.308Z,18.43
2018-08-13T05:01:01.265Z,18.43
2018-08-13T05:02:01.269Z,18.40
2018-08-13T05:03:01.277Z,18.47
2018-08-13T05:04:01.278Z,18.46
2018-08-13T05:05:01.270Z,18.46
2018-08-13T05:06:01.267Z,18.49
2018-08-13T05:07:01.265Z,18.43
2018-08-13T05:08:01.264Z,18.50
2018-08-13T05:09:01.253Z,18.52
2018-08-13T05:10:01.260Z,18.44
2018-08-13T05:11:01.247Z,18.47
2018-08-13T05:12:01.256Z,18.49
2018-08-13T05:13:01.254Z,18.54
2018-08-13T05:14:01.252Z,18.43
2018-08-13T05:15:01.252Z,18.52
2018-08-13T05:16:01.251Z,18.47
2018-08-13T05:17:01.250Z,18.49
2018-08-13T05:18:01.248Z,18.47
2018-08-13T05:19:01.252Z,18.44
2018-08-13T05:20:01.253Z,18.46
2018-08-13T05:21:01.242Z,18.46
2018-08-13T05:22:01.279Z,18.50
2018-08-13T05:23:01.239Z,18.47
2018-08-13T05:24:01.238Z,18.49
2018-08-13T05:25:01.258Z,18.49
2018-08-13T05:26:01.240Z,18.47
2018-08-13T05:27:01.239Z,18.50
2018-08-13T05:28:01.237Z,18.43
2018-08-13T05:29:01.225Z,18.52
2018-08-13T05:30:01.295Z,18.65
2018-08-13T05:31:01.226Z,18.62
2018-08-13T05:32:01.241Z,18.68
2018-08-13T05:33:01.226Z,18.86
2018-08-13T05:34:01.226Z,18.80
2018-08-13T05:35:01.238Z,18.98
2018-08-13T05:36:01.232Z,19.23
2018-08-13T05:37:01.227Z,19.20
2018-08-13T05:38:01.227Z,19.38
2018-08-13T05:39:01.237Z,19.42
2018-08-13T05:40:01.216Z,19.46
2018-08-13T05:41:01.231Z,19.57
2018-08-13T05:42:01.221Z,19.84
2018-08-13T05:43:01.218Z,19.83
2018-08-13T05:44:01.221Z,19.97
2018-08-13T05:45:01.210Z,20.05
2018-08-13T05:46:01.223Z,20.23
2018-08-13T05:47:01.220Z,20.41
2018-08-13T05:48:01.217Z,20.42
2018-08-13T05:49:01.216Z,20.58
2018-08-13T05:50:01.231Z,20.79
2018-08-13T05:51:01.219Z,20.89
2018-08-13T05:52:01.216Z,20.98
2018-08-13T05:53:01.256Z,21.11
2018-08-13T05:54:01.217Z,21.29
2018-08-13T05:55:01.213Z,21.34
2018-08-13T05:56:01.220Z,21.45
2018-08-13T05:57:01.230Z,21.46
2018-08-13T05:58:01.222Z,21.59
2018-08-13T05:59:01.219Z,21.76
2018-08-13T06:00:01.219Z,21.85
2018-08-13T06:01:01.222Z,22.12
2018-08-13T06:02:01.222Z,22.16
2018-08-13T06:03:01.266Z,22.29
2018-08-13T06:04:01.222Z,22.43
2018-08-13T06:05:01.229Z,22.52
2018-08-13T06:06:01.227Z,22.50
2018-08-13T06:07:01.232Z,22.69
2018-08-13T06:08:01.231Z,22.78
2018-08-13T06:09:01.229Z,22.83
2018-08-13T06:10:01.241Z,22.89
2018-08-13T06:11:01.234Z,23.04
2018-08-13T06:12:01.247Z,23.24
2018-08-13T06:13:01.237Z,23.32
2018-08-13T06:14:01.243Z,23.34
2018-08-13T06:15:01.247Z,23.35
2018-08-13T06:16:01.234Z,23.24
2018-08-13T06:17:01.239Z,23.23
2018-08-13T06:18:01.256Z,23.38
2018-08-13T06:19:01.255Z,23.43
2018-08-13T06:20:01.255Z,23.49
2018-08-13T06:21:01.248Z,23.61
2018-08-13T06:22:01.260Z,23.67
2018-08-13T06:23:01.270Z,23.72
2018-08-13T06:24:01.267Z,23.79
2018-08-13T06:25:01.272Z,23.79
2018-08-13T06:26:01.267Z,23.79
2018-08-13T06:27:01.269Z,23.95
2018-08-13T06:28:01.277Z,24.00
2018-08-13T06:29:01.290Z,24.17
2018-08-13T06:30:01.291Z,24.29
2018-08-13T06:31:01.282Z,24.47
2018-08-13T06:32:01.284Z,24.42
2018-08-13T06:33:01.285Z,24.41
2018-08-13T06:34:01.292Z,24.45
2018-08-13T06:35:01.292Z,24.42
2018-08-13T06:36:01.304Z,24.59
2018-08-13T06:37:01.314Z,24.59
2018-08-13T06:38:01.303Z,24.83
2018-08-13T06:39:01.305Z,24.88
2018-08-13T06:40:01.331Z,25.19
2018-08-13T06:41:01.318Z,25.27
2018-08-13T06:42:01.314Z,25.16
2018-08-13T06:43:01.319Z,25.42
2018-08-13T06:44:01.325Z,25.47
2018-08-13T06:45:01.320Z,25.56
2018-08-13T06:46:01.342Z,25.67
2018-08-13T06:47:01.415Z,25.59
2018-08-13T06:48:01.345Z,25.50
2018-08-13T06:49:01.352Z,25.17
2018-08-13T06:50:01.346Z,25.07
2018-08-13T06:51:01.352Z,24.98
2018-08-13T06:52:01.355Z,25.05
2018-08-13T06:53:01.353Z,25.09
2018-08-13T06:54:01.361Z,25.02
2018-08-13T06:55:01.356Z,25.19
2018-08-13T06:56:01.367Z,25.32
2018-08-13T06:57:01.378Z,25.39
2018-08-13T06:58:01.386Z,25.46
2018-08-13T06:59:01.387Z,25.39
2018-08-13T07:00:01.376Z,25.38
2018-08-13T07:01:01.390Z,25.44
2018-08-13T07:02:01.394Z,25.50
2018-08-13T07:03:01.402Z,25.86
2018-08-13T07:04:01.403Z,26.04
2018-08-13T07:05:01.401Z,25.64
2018-08-13T07:06:01.409Z,25.74
2018-08-13T07:07:01.411Z,25.77
2018-08-13T07:08:01.418Z,25.90
2018-08-13T07:09:01.419Z,26.21
2018-08-13T07:10:01.422Z,26.11
2018-08-13T07:11:01.438Z,26.25
2018-08-13T07:12:01.430Z,26.35
2018-08-13T07:13:01.443Z,26.54
2018-08-13T07:14:01.433Z,26.47
2018-08-13T07:15:01.439Z,26.47
2018-08-13T07:16:01.444Z,26.86
2018-08-13T07:17:01.445Z,27.06
2018-08-13T07:18:01.450Z,27.24
2018-08-13T07:19:01.448Z,27.33
2018-08-13T07:20:01.451Z,27.33
2018-08-13T07:21:01.459Z,27.33
2018-08-13T07:22:01.480Z,27.89
2018-08-13T07:23:01.469Z,28.43
2018-08-13T07:24:01.472Z,28.53
2018-08-13T07:25:01.479Z,28.68
2018-08-13T07:26:01.487Z,29.03
2018-08-13T07:27:01.481Z,29.19
2018-08-13T07:28:01.510Z,29.47
2018-08-13T07:29:01.498Z,29.20
2018-08-13T07:30:01.502Z,29.22
2018-08-13T07:31:01.507Z,29.03
2018-08-13T07:32:01.508Z,29.11
2018-08-13T07:33:01.521Z,29.22
2018-08-13T07:34:01.528Z,29.20
2018-08-13T07:35:01.538Z,29.13
2018-08-13T07:36:01.551Z,29.06
2018-08-13T07:37:01.562Z,29.63
2018-08-13T07:38:01.571Z,29.68
2018-08-13T07:39:01.657Z,30.02
2018-08-13T07:40:01.598Z,29.79
2018-08-13T07:41:01.594Z,29.60
2018-08-13T07:42:01.598Z,29.66
2018-08-13T07:43:01.615Z,29.79
2018-08-13T07:44:01.627Z,29.81
2018-08-13T07:45:01.651Z,29.90
2018-08-13T07:46:01.652Z,30.47
2018-08-13T07:47:01.678Z,30.37
2018-08-13T07:48:01.676Z,30.54
2018-08-13T07:49:01.697Z,30.57
2018-08-13T07:50:01.736Z,30.53
2018-08-13T07:51:01.725Z,30.96
2018-08-13T07:52:01.730Z,31.05
2018-08-13T07:53:01.739Z,31.13
2018-08-13T07:54:01.750Z,31.42
2018-08-13T07:55:01.810Z,31.98
2018-08-13T07:56:01.778Z,32.42
2018-08-13T07:57:01.787Z,31.84
2018-08-13T07:58:01.801Z,31.98
2018-08-13T07:59:01.831Z,32.07
2018-08-13T08:00:01.940Z,32.24
2018-08-13T08:01:01.851Z,32.62
2018-08-13T08:02:01.860Z,32.85
2018-08-13T08:03:01.879Z,33.04
2018-08-13T08:04:01.886Z,33.29
2018-08-13T08:05:01.898Z,33.23
2018-08-13T08:06:01.919Z,33.17
2018-08-13T08:07:01.926Z,33.10
2018-08-13T08:08:01.948Z,33.58
2018-08-13T08:09:01.958Z,33.55
2018-08-13T08:10:01.974Z,32.88
2018-08-13T08:11:01.997Z,33.10
2018-08-13T08:12:01.995Z,33.52
2018-08-13T08:13:02.023Z,33.13
2018-08-13T08:14:02.027Z,33.45
2018-08-13T08:15:02.082Z,33.48
2018-08-13T08:16:02.070Z,34.13
2018-08-13T08:17:02.080Z,34.02
2018-08-13T08:18:02.098Z,33.80
2018-08-13T08:19:02.114Z,33.45
2018-08-13T08:20:02.114Z,33.48
2018-08-13T08:21:02.141Z,33.80
2018-08-13T08:22:02.151Z,33.95
2018-08-13T08:23:02.165Z,33.94
2018-08-13T08:24:02.186Z,33.65
2018-08-13T08:25:02.192Z,32.54
2018-08-13T08:26:02.209Z,31.30
2018-08-13T08:27:02.232Z,30.72
2018-08-13T08:28:02.247Z,30.09
2018-08-13T08:29:02.271Z,30.67
2018-08-13T08:30:02.274Z,30.96
2018-08-13T08:31:02.300Z,31.54
2018-08-13T08:32:02.307Z,32.35
2018-08-13T08:33:02.342Z,32.21
2018-08-13T08:34:02.337Z,32.81
2018-08-13T08:35:02.365Z,33.23
2018-08-13T08:36:02.359Z,33.86
2018-08-13T08:37:02.385Z,33.74
2018-08-13T08:38:02.398Z,34.01
2018-08-13T08:39:02.406Z,34.58
2018-08-13T08:40:02.427Z,34.39
2018-08-13T08:41:02.444Z,34.32
2018-08-13T08:42:02.449Z,33.37
2018-08-13T08:43:02.475Z,33.34
2018-08-13T08:44:02.493Z,33.10
2018-08-13T08:45:02.508Z,33.53
2018-08-13T08:46:02.603Z,33.42
2018-08-13T08:47:02.530Z,32.84
2018-08-13T08:48:02.553Z,33.26
2018-08-13T08:49:02.575Z,33.67
2018-08-13T08:50:02.590Z,33.83
2018-08-13T08:51:02.601Z,34.51
2018-08-13T08:52:02.627Z,34.44
2018-08-13T08:53:02.672Z,34.56
2018-08-13T08:54:02.650Z,33.07
2018-08-13T08:55:02.681Z,33.80
2018-08-13T08:56:02.677Z,34.23
2018-08-13T08:57:02.807Z,34.36
2018-08-13T08:58:02.731Z,33.67
2018-08-13T08:59:02.739Z,33.97
2018-08-13T09:00:02.761Z,34.72
2018-08-13T09:01:02.779Z,35.14
2018-08-13T09:02:02.791Z,34.51
2018-08-13T09:03:02.801Z,35.07
2018-08-13T09:04:02.818Z,35.95
2018-08-13T09:05:02.840Z,35.39
2018-08-13T09:06:02.915Z,34.84
2018-08-13T09:07:02.866Z,35.21
2018-08-13T09:08:02.899Z,35.17
2018-08-13T09:09:02.913Z,35.74
2018-08-13T09:10:02.926Z,35.30
2018-08-13T09:11:02.968Z,36.03
2018-08-13T09:12:02.973Z,36.12
2018-08-13T09:13:02.983Z,36.20
2018-08-13T09:14:03.014Z,36.87
2018-08-13T09:15:03.013Z,37.31
2018-08-13T09:16:03.032Z,36.21
2018-08-13T09:17:03.060Z,35.20
2018-08-13T09:18:03.074Z,33.70
2018-08-13T09:19:03.129Z,33.60
2018-08-13T09:20:03.103Z,33.52
2018-08-13T09:21:03.127Z,34.34
2018-08-13T09:22:03.143Z,35.63
2018-08-13T09:23:03.165Z,36.06
2018-08-13T09:24:03.172Z,36.92
2018-08-13T09:25:03.203Z,37.26
2018-08-13T09:26:03.229Z,36.39
2018-08-13T09:27:03.234Z,35.10
2018-08-13T09:28:03.255Z,34.00
2018-08-13T09:29:03.276Z,34.42
2018-08-13T09:30:03.283Z,35.44
2018-08-13T09:31:03.308Z,36.35
2018-08-13T09:32:03.333Z,36.35
2018-08-13T09:33:03.360Z,36.30
2018-08-13T09:34:03.372Z,35.60
2018-08-13T09:35:03.384Z,34.51
2018-08-13T09:36:03.389Z,34.39
2018-08-13T09:37:03.433Z,33.41
2018-08-13T09:38:03.425Z,33.39
2018-08-13T09:39:03.445Z,33.42
2018-08-13T09:40:03.472Z,33.95
2018-08-13T09:41:03.476Z,34.42
2018-08-13T09:42:03.496Z,34.86
2018-08-13T09:43:03.510Z,34.48
2018-08-13T09:44:03.535Z,33.15
2018-08-13T09:45:03.559Z,32.57
2018-08-13T09:46:03.556Z,32.07
2018-08-13T09:47:03.573Z,31.67
2018-08-13T09:48:03.601Z,31.36
2018-08-13T09:49:03.612Z,30.98
2018-08-13T09:50:03.620Z,30.61
2018-08-13T09:51:03.639Z,30.62
2018-08-13T09:52:03.657Z,30.74
2018-08-13T09:53:03.667Z,31.04
2018-08-13T09:54:03.680Z,31.13
2018-08-13T09:55:03.706Z,30.67
2018-08-13T09:56:03.705Z,30.72
2018-08-13T09:57:03.712Z,31.28
2018-08-13T09:58:03.752Z,31.55
2018-08-13T09:59:03.742Z,31.60
2018-08-13T10:00:03.758Z,31.46
2018-08-13T10:01:03.768Z,31.20
2018-08-13T10:02:03.780Z,31.01
2018-08-13T10:03:03.786Z,31.42
2018-08-13T10:04:03.803Z,31.65
2018-08-13T10:05:03.821Z,31.73
2018-08-13T10:06:03.824Z,31.76
2018-08-13T10:07:03.831Z,31.85
2018-08-13T10:08:03.844Z,31.91
2018-08-13T10:09:03.859Z,31.85
2018-08-13T10:10:03.872Z,31.55
2018-08-13T10:11:03.889Z,31.55
2018-08-13T10:12:03.907Z,31.48
2018-08-13T10:13:03.908Z,31.60
2018-08-13T10:14:03.917Z,31.92
2018-08-13T10:15:03.925Z,32.17
2018-08-13T10:16:03.943Z,32.37
2018-08-13T10:17:03.961Z,31.75
2018-08-13T10:18:03.961Z,32.05
2018-08-13T10:19:03.975Z,32.02
2018-08-13T10:20:03.989Z,32.18
2018-08-13T10:21:03.993Z,32.14
2018-08-13T10:22:04.007Z,32.42
2018-08-13T10:23:04.024Z,32.77
2018-08-13T10:24:04.048Z,32.99
2018-08-13T10:25:04.046Z,32.80
2018-08-13T10:26:04.061Z,32.70
2018-08-13T10:27:04.063Z,32.89
2018-08-13T10:28:04.079Z,32.76
2018-08-13T10:29:04.093Z,32.27
2018-08-13T10:30:04.107Z,31.64
2018-08-13T10:31:04.111Z,31.64
2018-08-13T10:32:04.125Z,30.90
2018-08-13T10:33:04.134Z,30.74
2018-08-13T10:34:04.149Z,30.80
2018-08-13T10:35:04.150Z,30.80
2018-08-13T10:36:04.170Z,31.02
2018-08-13T10:37:04.180Z,31.13
2018-08-13T10:38:04.203Z,31.13
2018-08-13T10:39:04.192Z,30.93
2018-08-13T10:40:04.214Z,30.71
2018-08-13T10:41:04.228Z,30.50
2018-08-13T10:42:04.246Z,30.61
2018-08-13T10:43:04.242Z,30.15
2018-08-13T10:44:04.249Z,30.31
2018-08-13T10:45:04.270Z,30.23
2018-08-13T10:46:04.280Z,30.40
2018-08-13T10:47:04.287Z,30.49
2018-08-13T10:48:04.293Z,30.74
2018-08-13T10:49:04.308Z,30.75
2018-08-13T10:50:04.314Z,30.56
2018-08-13T10:51:04.329Z,30.57
2018-08-13T10:52:25.351Z,30.69
2018-08-13T10:53:04.338Z,30.57
2018-08-13T10:54:04.355Z,29.89
2018-08-13T10:55:04.368Z,29.90
2018-08-13T10:56:04.407Z,29.70
2018-08-13T10:57:04.384Z,29.44
2018-08-13T10:58:04.392Z,29.28
2018-08-13T10:59:04.398Z,29.08
2018-08-13T11:00:04.413Z,29.01
2018-08-13T11:01:04.522Z,28.73
2018-08-13T11:02:04.426Z,28.84
2018-08-13T11:03:04.450Z,28.96
2018-08-13T11:04:04.449Z,28.66
2018-08-13T11:05:04.461Z,28.54
2018-08-13T11:06:04.460Z,28.19
2018-08-13T11:07:04.481Z,27.36
2018-08-13T11:08:04.484Z,27.51
2018-08-13T11:09:04.497Z,27.48
2018-08-13T11:10:04.509Z,27.62
2018-08-13T11:11:04.515Z,27.19
2018-08-13T11:12:04.509Z,26.73
2018-08-13T11:13:04.530Z,26.68
2018-08-13T11:14:04.535Z,26.86
2018-08-13T11:15:04.545Z,27.11
2018-08-13T11:16:04.546Z,27.11
2018-08-13T11:17:04.556Z,27.33
2018-08-13T11:18:04.567Z,27.46
2018-08-13T11:19:04.584Z,27.57
2018-08-13T11:20:04.571Z,27.57
2018-08-13T11:21:04.580Z,27.76
2018-08-13T11:22:04.578Z,27.58
2018-08-13T11:23:04.594Z,27.70
2018-08-13T11:24:04.604Z,27.82
2018-08-13T11:25:04.604Z,27.82
2018-08-13T11:26:04.621Z,27.86
2018-08-13T11:27:04.621Z,28.36
2018-08-13T11:28:04.642Z,28.50
2018-08-13T11:29:04.656Z,28.69
2018-08-13T11:30:04.651Z,28.93
2018-08-13T11:31:04.680Z,28.91
2018-08-13T11:32:04.659Z,29.11
2018-08-13T11:33:04.662Z,28.91
2018-08-13T11:34:04.684Z,28.63
2018-08-13T11:35:04.688Z,28.72
2018-08-13T11:36:04.697Z,28.31
2018-08-13T11:37:04.703Z,28.07
2018-08-13T11:38:04.719Z,28.01
2018-08-13T11:39:04.726Z,27.95
2018-08-13T11:40:04.729Z,27.88
2018-08-13T11:41:04.737Z,27.88
2018-08-13T11:42:04.779Z,27.99
2018-08-13T11:43:04.757Z,27.13
2018-08-13T11:44:04.765Z,27.19
2018-08-13T11:45:04.772Z,27.21
2018-08-13T11:46:04.776Z,27.31
2018-08-13T11:47:04.783Z,27.23
2018-08-13T11:48:04.792Z,27.20
2018-08-13T11:49:04.802Z,26.73
2018-08-13T11:50:04.810Z,26.68
2018-08-13T11:51:04.820Z,26.67
2018-08-13T11:52:04.834Z,26.36
2018-08-13T11:53:04.827Z,26.32
2018-08-13T11:54:04.827Z,26.27
2018-08-13T11:55:04.831Z,26.27
2018-08-13T11:56:04.862Z,26.25
2018-08-13T11:57:04.855Z,25.77
2018-08-13T11:58:04.864Z,26.04
2018-08-13T11:59:04.865Z,25.77
2018-08-13T12:00:04.874Z,25.46
2018-08-13T12:01:04.920Z,25.31
2018-08-13T12:02:04.954Z,25.27
2018-08-13T12:03:04.896Z,25.17
2018-08-13T12:04:04.898Z,25.00
2018-08-13T12:05:04.898Z,24.67
2018-08-13T12:06:04.925Z,24.37
2018-08-13T12:07:04.915Z,24.24
2018-08-13T12:08:04.933Z,23.97
2018-08-13T12:09:04.932Z,23.80
2018-08-13T12:10:04.937Z,23.61
2018-08-13T12:11:04.937Z,23.23
2018-08-13T12:12:04.950Z,22.87
2018-08-13T12:13:04.955Z,22.49
2018-08-13T12:14:05.010Z,22.37
2018-08-13T12:15:04.953Z,22.23
2018-08-13T12:16:04.973Z,21.75
2018-08-13T12:17:04.963Z,21.56
2018-08-13T12:18:04.955Z,21.34
2018-08-13T12:19:04.969Z,21.21
2018-08-13T12:20:04.978Z,21.20
2018-08-13T12:21:04.980Z,20.99
2018-08-13T12:22:04.985Z,20.65
2018-08-13T12:23:04.978Z,20.51
2018-08-13T12:24:04.997Z,20.59
2018-08-13T12:25:04.987Z,20.61
2018-08-13T12:26:04.986Z,20.64
2018-08-13T12:27:05.005Z,20.74
2018-08-13T12:28:04.994Z,20.76
2018-08-13T12:29:05.004Z,20.74
2018-08-13T12:30:04.999Z,20.93
2018-08-13T12:31:04.991Z,20.87
2018-08-13T12:32:04.990Z,20.89
2018-08-13T12:33:05.011Z,20.96
2018-08-13T12:34:05.126Z,20.96
2018-08-13T12:35:05.013Z,21.05
2018-08-13T12:36:05.000Z,21.14
2018-08-13T12:37:05.010Z,21.06
2018-08-13T12:38:05.006Z,20.89
2018-08-13T12:39:05.014Z,21.06
2018-08-13T12:40:05.016Z,21.20
2018-08-13T12:41:05.064Z,21.38
2018-08-13T12:42:05.022Z,21.38
2018-08-13T12:43:05.011Z,21.53
2018-08-13T12:44:05.021Z,21.57
2018-08-13T12:45:05.018Z,21.82
2018-08-13T12:46:05.023Z,21.91
2018-08-13T12:47:05.024Z,21.99
2018-08-13T12:48:05.015Z,21.94
2018-08-13T12:49:05.019Z,21.94
2018-08-13T12:50:05.021Z,21.97
2018-08-13T12:51:05.134Z,22.12
2018-08-13T12:52:05.039Z,22.09
2018-08-13T12:53:05.028Z,21.85
2018-08-13T12:54:05.024Z,21.82
2018-08-13T12:55:05.034Z,21.75
2018-08-13T12:56:05.046Z,21.48
2018-08-13T12:57:05.090Z,21.36
2018-08-13T12:58:05.041Z,21.34
2018-08-13T12:59:05.042Z,21.09
2018-08-13T13:00:05.059Z,20.89
2018-08-13T13:01:05.051Z,20.79
2018-08-13T13:02:05.053Z,20.80
2018-08-13T13:03:05.049Z,20.62
2018-08-13T13:04:05.059Z,20.64
2018-08-13T13:05:05.063Z,20.51
2018-08-13T13:06:05.073Z,20.49
2018-08-13T13:07:05.050Z,20.49
2018-08-13T13:08:05.065Z,20.39
2018-08-13T13:09:05.098Z,20.41
2018-08-13T13:10:05.069Z,20.24
2018-08-13T13:11:05.066Z,20.25
2018-08-13T13:12:05.064Z,20.21
2018-08-13T13:13:05.064Z,20.20
2018-08-13T13:14:05.068Z,20.28
2018-08-13T13:15:05.178Z,20.21
2018-08-13T13:16:05.080Z,20.33
2018-08-13T13:17:05.074Z,20.21
2018-08-13T13:18:05.078Z,20.33
2018-08-13T13:19:05.062Z,20.33
2018-08-13T13:20:05.067Z,20.31
2018-08-13T13:21:05.116Z,20.27
2018-08-13T13:22:05.079Z,20.16
2018-08-13T13:23:05.071Z,20.02
2018-08-13T13:24:05.073Z,20.06
2018-08-13T13:25:05.079Z,19.84
2018-08-13T13:26:05.109Z,19.79
2018-08-13T13:27:05.076Z,19.78
2018-08-13T13:28:05.144Z,19.70
2018-08-13T13:29:05.067Z,19.72
2018-08-13T13:30:05.121Z,19.65
2018-08-13T13:31:05.063Z,19.46
2018-08-13T13:32:05.078Z,19.43
2018-08-13T13:33:05.073Z,19.29
2018-08-13T13:34:05.073Z,19.35
2018-08-13T13:35:05.076Z,19.05
2018-08-13T13:36:05.073Z,18.92
2018-08-13T13:37:05.065Z,18.83
2018-08-13T13:38:05.064Z,18.73
2018-08-13T13:39:05.071Z,18.62
2018-08-13T13:40:05.066Z,18.55
2018-08-13T13:41:05.071Z,18.49
2018-08-13T13:42:05.057Z,18.46
2018-08-13T13:43:05.072Z,18.24
2018-08-13T13:44:05.068Z,18.31
2018-08-13T13:45:05.066Z,18.22
2018-08-13T13:46:05.058Z,18.17
2018-08-13T13:47:05.061Z,18.13
2018-08-13T13:48:05.085Z,18.12
2018-08-13T13:49:05.063Z,18.02
2018-08-13T13:50:05.060Z,17.92
2018-08-13T13:51:05.052Z,17.89
2018-08-13T13:52:05.051Z,17.89
2018-08-13T13:53:05.057Z,17.85
2018-08-13T13:54:05.054Z,18.00